sensor_id;sensor_type;location;lat;lon;timestamp;pressure;altitude;pressure_sealevel;temperature;humidity
6194;BME280;3130;41.564;23.280;2023-04-07T00:00:34;98686.19;;;6.50;49.27
6194;BME280;3130;41.564;23.280;2023-04-07T00:03:01;98690.28;;;6.52;48.65
6194;BME280;3130;41.564;23.280;2023-04-07T00:05:31;98676.41;;;6.41;48.73
6194;BME280;3130;41.564;23.280;2023-04-07T00:07:58;98677.31;;;6.40;48.29
6194;BME280;3130;41.564;23.280;2023-04-07T00:10:25;98693.06;;;6.48;48.60
6194;BME280;3130;41.564;23.280;2023-04-07T00:12:53;98697.53;;;6.43;48.24
6194;BME280;3130;41.564;23.280;2023-04-07T00:15:20;98698.06;;;6.49;48.38
6194;BME280;3130;41.564;23.280;2023-04-07T00:17:47;98657.41;;;6.12;48.58
6194;BME280;3130;41.564;23.280;2023-04-07T00:20:14;98681.25;;;6.28;48.28
6194;BME280;3130;41.564;23.280;2023-04-07T00:22:41;98667.22;;;6.20;48.89
6194;BME280;3130;41.564;23.280;2023-04-07T00:25:09;98699.53;;;6.36;48.53
6194;BME280;3130;41.564;23.280;2023-04-07T00:27:36;98666.41;;;6.19;48.30
6194;BME280;3130;41.564;23.280;2023-04-07T00:30:06;98701.66;;;6.45;48.04
6194;BME280;3130;41.564;23.280;2023-04-07T00:32:33;98706.81;;;6.44;48.19
6194;BME280;3130;41.564;23.280;2023-04-07T00:35:00;98703.00;;;6.35;48.60
6194;BME280;3130;41.564;23.280;2023-04-07T00:37:27;98684.91;;;6.23;47.54
6194;BME280;3130;41.564;23.280;2023-04-07T00:39:55;98698.84;;;6.33;47.78
6194;BME280;3130;41.564;23.280;2023-04-07T00:42:23;98700.31;;;6.38;48.20
6194;BME280;3130;41.564;23.280;2023-04-07T00:44:50;98692.19;;;6.30;48.37
6194;BME280;3130;41.564;23.280;2023-04-07T00:47:19;98705.31;;;6.40;47.92
6194;BME280;3130;41.564;23.280;2023-04-07T00:49:46;98705.00;;;6.29;48.51
6194;BME280;3130;41.564;23.280;2023-04-07T00:52:13;98703.75;;;6.37;48.70
6194;BME280;3130;41.564;23.280;2023-04-07T00:54:41;98700.66;;;6.31;49.03
6194;BME280;3130;41.564;23.280;2023-04-07T00:57:08;98710.53;;;6.37;48.16
6194;BME280;3130;41.564;23.280;2023-04-07T00:59:35;98649.31;;;6.04;49.21
6194;BME280;3130;41.564;23.280;2023-04-07T01:02:06;98713.25;;;6.51;48.57
6194;BME280;3130;41.564;23.280;2023-04-07T01:04:42;98715.97;;;6.48;48.76
6194;BME280;3130;41.564;23.280;2023-04-07T01:07:14;98626.50;;;5.85;49.29
6194;BME280;3130;41.564;23.280;2023-04-07T01:09:46;98723.00;;;6.43;49.01
6194;BME280;3130;41.564;23.280;2023-04-07T01:12:19;98716.03;;;6.46;49.04
6194;BME280;3130;41.564;23.280;2023-04-07T01:14:51;98724.44;;;6.48;49.77
6194;BME280;3130;41.564;23.280;2023-04-07T01:17:20;98722.03;;;6.45;48.77
6194;BME280;3130;41.564;23.280;2023-04-07T01:19:57;98736.34;;;6.48;48.14
6194;BME280;3130;41.564;23.280;2023-04-07T01:22:28;98728.38;;;6.37;49.83
6194;BME280;3130;41.564;23.280;2023-04-07T01:25:26;98728.31;;;6.20;51.38
6194;BME280;3130;41.564;23.280;2023-04-07T01:28:13;98725.69;;;5.85;54.48
6194;BME280;3130;41.564;23.280;2023-04-07T01:30:43;98678.97;;;5.29;56.69
6194;BME280;3130;41.564;23.280;2023-04-07T01:33:11;98712.25;;;5.03;59.31
6194;BME280;3130;41.564;23.280;2023-04-07T01:35:41;98737.38;;;4.91;60.76
6194;BME280;3130;41.564;23.280;2023-04-07T01:38:09;98738.50;;;4.62;62.69
6194;BME280;3130;41.564;23.280;2023-04-07T01:40:38;98738.19;;;4.48;63.48
6194;BME280;3130;41.564;23.280;2023-04-07T01:43:07;98740.22;;;4.40;64.37
6194;BME280;3130;41.564;23.280;2023-04-07T01:45:35;98742.06;;;4.37;64.92
6194;BME280;3130;41.564;23.280;2023-04-07T01:48:06;98741.38;;;4.10;66.53
6194;BME280;3130;41.564;23.280;2023-04-07T01:50:33;98739.38;;;3.95;67.25
6194;BME280;3130;41.564;23.280;2023-04-07T01:53:02;98717.78;;;3.63;69.25
6194;BME280;3130;41.564;23.280;2023-04-07T01:55:31;98725.75;;;3.52;70.16
6194;BME280;3130;41.564;23.280;2023-04-07T01:57:58;98733.50;;;3.49;70.54
6194;BME280;3130;41.564;23.280;2023-04-07T02:00:29;98698.75;;;3.28;71.79
6194;BME280;3130;41.564;23.280;2023-04-07T02:03:01;98693.88;;;3.22;71.50
6194;BME280;3130;41.564;23.280;2023-04-07T02:05:33;98719.63;;;3.35;71.53
6194;BME280;3130;41.564;23.280;2023-04-07T02:08:04;98721.56;;;3.28;71.97
6194;BME280;3130;41.564;23.280;2023-04-07T02:10:35;98716.47;;;3.28;71.87
6194;BME280;3130;41.564;23.280;2023-04-07T02:13:04;98725.38;;;3.15;72.66
6194;BME280;3130;41.564;23.280;2023-04-07T02:15:35;98723.84;;;3.10;73.24
6194;BME280;3130;41.564;23.280;2023-04-07T02:18:03;98724.88;;;3.06;73.08
6194;BME280;3130;41.564;23.280;2023-04-07T02:20:34;98725.06;;;3.00;73.73
6194;BME280;3130;41.564;23.280;2023-04-07T02:23:02;98732.84;;;2.94;74.26
6194;BME280;3130;41.564;23.280;2023-04-07T02:25:31;98726.28;;;2.89;74.03
6194;BME280;3130;41.564;23.280;2023-04-07T02:27:59;98652.72;;;2.43;74.02
6194;BME280;3130;41.564;23.280;2023-04-07T02:30:27;98725.88;;;3.00;73.50
6194;BME280;3130;41.564;23.280;2023-04-07T02:32:54;98598.63;;;2.21;72.92
6194;BME280;3130;41.564;23.280;2023-04-07T02:35:21;98728.28;;;3.05;74.08
6194;BME280;3130;41.564;23.280;2023-04-07T02:37:49;98736.91;;;3.24;73.20
6194;BME280;3130;41.564;23.280;2023-04-07T02:40:17;98733.09;;;3.35;72.32
6194;BME280;3130;41.564;23.280;2023-04-07T02:42:45;98737.91;;;3.43;71.25
6194;BME280;3130;41.564;23.280;2023-04-07T02:45:12;98739.72;;;3.39;72.38
6194;BME280;3130;41.564;23.280;2023-04-07T02:47:39;98737.53;;;3.30;72.50
6194;BME280;3130;41.564;23.280;2023-04-07T02:50:07;98736.38;;;3.14;73.08
6194;BME280;3130;41.564;23.280;2023-04-07T02:52:34;98731.19;;;2.93;74.54
6194;BME280;3130;41.564;23.280;2023-04-07T02:55:03;98739.19;;;2.81;75.22
6194;BME280;3130;41.564;23.280;2023-04-07T02:57:30;98735.19;;;2.74;75.79
6194;BME280;3130;41.564;23.280;2023-04-07T02:59:57;98692.34;;;2.42;75.68
6194;BME280;3130;41.564;23.280;2023-04-07T03:02:24;98735.66;;;2.59;76.68
6194;BME280;3130;41.564;23.280;2023-04-07T03:04:51;98735.13;;;2.50;76.21
6194;BME280;3130;41.564;23.280;2023-04-07T03:07:18;98745.31;;;2.47;76.70
6194;BME280;3130;41.564;23.280;2023-04-07T03:09:45;98744.22;;;2.55;76.48
6194;BME280;3130;41.564;23.280;2023-04-07T03:12:14;98685.31;;;2.24;75.81
6194;BME280;3130;41.564;23.280;2023-04-07T03:14:41;98652.22;;;2.04;75.89
6194;BME280;3130;41.564;23.280;2023-04-07T03:17:08;98751.59;;;2.63;76.25
6194;BME280;3130;41.564;23.280;2023-04-07T03:19:35;98739.13;;;2.57;75.69
6194;BME280;3130;41.564;23.280;2023-04-07T03:22:03;98759.06;;;2.66;76.66
6194;BME280;3130;41.564;23.280;2023-04-07T03:24:30;98755.00;;;2.62;76.58
6194;BME280;3130;41.564;23.280;2023-04-07T03:26:57;98763.03;;;2.47;77.45
6194;BME280;3130;41.564;23.280;2023-04-07T03:29:25;98703.81;;;1.99;76.96
6194;BME280;3130;41.564;23.280;2023-04-07T03:31:52;98768.78;;;2.24;76.76
6194;BME280;3130;41.564;23.280;2023-04-07T03:34:19;98768.19;;;2.16;77.98
6194;BME280;3130;41.564;23.280;2023-04-07T03:36:46;98763.16;;;2.16;77.35
6194;BME280;3130;41.564;23.280;2023-04-07T03:39:13;98762.59;;;2.05;78.15
6194;BME280;3130;41.564;23.280;2023-04-07T03:41:40;98753.56;;;1.98;78.17
6194;BME280;3130;41.564;23.280;2023-04-07T03:44:07;98771.72;;;2.11;78.70
6194;BME280;3130;41.564;23.280;2023-04-07T03:46:36;98755.72;;;2.10;78.23
6194;BME280;3130;41.564;23.280;2023-04-07T03:49:03;98758.03;;;2.18;77.84
6194;BME280;3130;41.564;23.280;2023-04-07T03:51:31;98735.34;;;2.15;77.72
6194;BME280;3130;41.564;23.280;2023-04-07T03:53:58;98756.69;;;2.35;77.52
6194;BME280;3130;41.564;23.280;2023-04-07T03:56:25;98781.59;;;2.47;77.66
6194;BME280;3130;41.564;23.280;2023-04-07T03:58:53;98770.84;;;2.41;77.58
6194;BME280;3130;41.564;23.280;2023-04-07T04:01:20;98783.66;;;2.35;77.65
6194;BME280;3130;41.564;23.280;2023-04-07T04:03:48;98762.66;;;2.04;77.87
6194;BME280;3130;41.564;23.280;2023-04-07T04:06:16;98783.53;;;2.10;78.07
6194;BME280;3130;41.564;23.280;2023-04-07T04:08:43;98790.25;;;2.11;78.24
6194;BME280;3130;41.564;23.280;2023-04-07T04:11:10;98789.47;;;2.09;78.24
6194;BME280;3130;41.564;23.280;2023-04-07T04:13:37;98775.38;;;2.01;78.26
6194;BME280;3130;41.564;23.280;2023-04-07T04:16:04;98786.72;;;2.17;78.79
6194;BME280;3130;41.564;23.280;2023-04-07T04:18:31;98795.00;;;2.22;78.49
6194;BME280;3130;41.564;23.280;2023-04-07T04:21:00;98672.25;;;1.56;78.20
6194;BME280;3130;41.564;23.280;2023-04-07T04:23:27;98796.28;;;2.36;77.47
6194;BME280;3130;41.564;23.280;2023-04-07T04:25:54;98757.84;;;1.95;78.41
6194;BME280;3130;41.564;23.280;2023-04-07T04:28:21;98796.47;;;2.29;78.04
6194;BME280;3130;41.564;23.280;2023-04-07T04:30:48;98761.31;;;1.93;78.24
6194;BME280;3130;41.564;23.280;2023-04-07T04:33:15;98736.63;;;1.72;78.47
6194;BME280;3130;41.564;23.280;2023-04-07T04:35:43;98799.44;;;2.14;78.09
6194;BME280;3130;41.564;23.280;2023-04-07T04:38:12;98800.94;;;2.21;79.12
6194;BME280;3130;41.564;23.280;2023-04-07T04:40:39;98803.53;;;2.18;79.09
6194;BME280;3130;41.564;23.280;2023-04-07T04:43:06;98800.44;;;2.08;78.93
6194;BME280;3130;41.564;23.280;2023-04-07T04:45:34;98762.38;;;1.84;78.71
6194;BME280;3130;41.564;23.280;2023-04-07T04:48:01;98812.88;;;2.16;79.07
6194;BME280;3130;41.564;23.280;2023-04-07T04:50:28;98808.25;;;2.30;78.94
6194;BME280;3130;41.564;23.280;2023-04-07T04:52:55;98742.03;;;1.89;77.63
6194;BME280;3130;41.564;23.280;2023-04-07T04:55:23;98819.03;;;2.36;78.15
6194;BME280;3130;41.564;23.280;2023-04-07T04:57:50;98807.66;;;2.22;77.92
6194;BME280;3130;41.564;23.280;2023-04-07T05:00:18;98818.34;;;2.31;78.08
6194;BME280;3130;41.564;23.280;2023-04-07T05:02:45;98792.72;;;2.13;77.84
6194;BME280;3130;41.564;23.280;2023-04-07T05:05:12;98809.13;;;2.29;77.58
6194;BME280;3130;41.564;23.280;2023-04-07T05:07:39;98822.38;;;2.37;77.49
6194;BME280;3130;41.564;23.280;2023-04-07T05:10:07;98831.25;;;2.50;76.72
6194;BME280;3130;41.564;23.280;2023-04-07T05:12:36;98782.38;;;2.22;76.56
6194;BME280;3130;41.564;23.280;2023-04-07T05:15:04;98850.78;;;2.46;75.80
6194;BME280;3130;41.564;23.280;2023-04-07T05:17:31;98839.56;;;2.55;76.14
6194;BME280;3130;41.564;23.280;2023-04-07T05:19:58;98819.53;;;2.47;75.10
6194;BME280;3130;41.564;23.280;2023-04-07T05:22:25;98751.44;;;2.12;74.45
6194;BME280;3130;41.564;23.280;2023-04-07T05:24:52;98840.84;;;2.68;74.11
6194;BME280;3130;41.564;23.280;2023-04-07T05:27:19;98797.31;;;2.57;74.51
6194;BME280;3130;41.564;23.280;2023-04-07T05:29:48;98857.53;;;3.00;72.78
6194;BME280;3130;41.564;23.280;2023-04-07T05:32:15;98851.09;;;3.18;71.90
6194;BME280;3130;41.564;23.280;2023-04-07T05:34:42;98859.03;;;3.33;70.76
6194;BME280;3130;41.564;23.280;2023-04-07T05:37:09;98856.09;;;3.45;70.11
6194;BME280;3130;41.564;23.280;2023-04-07T05:39:36;98830.78;;;3.44;69.99
6194;BME280;3130;41.564;23.280;2023-04-07T05:42:03;98849.50;;;3.66;68.72
6194;BME280;3130;41.564;23.280;2023-04-07T05:44:30;98861.28;;;3.91;67.84
6194;BME280;3130;41.564;23.280;2023-04-07T05:46:59;98857.94;;;4.13;66.81
6194;BME280;3130;41.564;23.280;2023-04-07T05:49:26;98859.72;;;4.34;65.71
6194;BME280;3130;41.564;23.280;2023-04-07T05:51:53;98854.81;;;4.53;66.39
6194;BME280;3130;41.564;23.280;2023-04-07T05:54:20;98855.03;;;4.70;66.05
6194;BME280;3130;41.564;23.280;2023-04-07T05:56:47;98820.47;;;4.66;65.21
6194;BME280;3130;41.564;23.280;2023-04-07T05:59:14;98862.81;;;5.08;65.72
6194;BME280;3130;41.564;23.280;2023-04-07T06:01:41;98874.63;;;5.30;62.90
6194;BME280;3130;41.564;23.280;2023-04-07T06:04:10;98863.78;;;5.47;60.00
6194;BME280;3130;41.564;23.280;2023-04-07T06:06:37;98870.91;;;5.59;58.83
6194;BME280;3130;41.564;23.280;2023-04-07T06:09:04;98871.94;;;5.75;56.77
6194;BME280;3130;41.564;23.280;2023-04-07T06:11:31;98846.97;;;5.84;55.47
6194;BME280;3130;41.564;23.280;2023-04-07T06:13:57;98857.03;;;6.07;55.05
6194;BME280;3130;41.564;23.280;2023-04-07T06:16:25;98856.56;;;6.17;52.79
6194;BME280;3130;41.564;23.280;2023-04-07T06:18:52;98778.94;;;5.89;52.83
6194;BME280;3130;41.564;23.280;2023-04-07T06:21:20;98849.97;;;6.50;51.63
6194;BME280;3130;41.564;23.280;2023-04-07T06:23:47;98870.16;;;6.73;49.09
6194;BME280;3130;41.564;23.280;2023-04-07T06:26:14;98866.97;;;6.87;48.14
6194;BME280;3130;41.564;23.280;2023-04-07T06:28:42;98866.59;;;6.94;47.93
6194;BME280;3130;41.564;23.280;2023-04-07T06:31:10;98874.53;;;7.06;47.56
6194;BME280;3130;41.564;23.280;2023-04-07T06:33:37;98866.72;;;7.28;46.45
6194;BME280;3130;41.564;23.280;2023-04-07T06:36:04;98850.28;;;7.67;45.53
6194;BME280;3130;41.564;23.280;2023-04-07T06:38:32;98873.53;;;8.77;43.37
6194;BME280;3130;41.564;23.280;2023-04-07T06:41:00;98865.84;;;9.96;38.97
6194;BME280;3130;41.564;23.280;2023-04-07T06:43:27;98863.78;;;10.86;37.19
6194;BME280;3130;41.564;23.280;2023-04-07T06:45:54;98872.81;;;12.09;36.02
6194;BME280;3130;41.564;23.280;2023-04-07T06:48:21;98880.75;;;13.51;33.78
6194;BME280;3130;41.564;23.280;2023-04-07T06:50:49;98874.34;;;14.36;31.26
6194;BME280;3130;41.564;23.280;2023-04-07T06:53:16;98874.91;;;14.94;30.63
6194;BME280;3130;41.564;23.280;2023-04-07T06:55:44;98875.75;;;15.79;29.16
6194;BME280;3130;41.564;23.280;2023-04-07T06:58:11;98867.84;;;16.21;28.00
6194;BME280;3130;41.564;23.280;2023-04-07T07:00:38;98880.78;;;17.02;26.93
6194;BME280;3130;41.564;23.280;2023-04-07T07:03:06;98871.00;;;17.24;26.35
6194;BME280;3130;41.564;23.280;2023-04-07T07:05:33;98861.34;;;14.59;28.54
6194;BME280;3130;41.564;23.280;2023-04-07T07:08:00;98845.31;;;16.13;27.62
6194;BME280;3130;41.564;23.280;2023-04-07T07:10:27;98854.38;;;16.78;28.28
6194;BME280;3130;41.564;23.280;2023-04-07T07:12:55;98868.31;;;17.63;27.51
6194;BME280;3130;41.564;23.280;2023-04-07T07:15:22;98871.41;;;18.69;26.35
6194;BME280;3130;41.564;23.280;2023-04-07T07:17:49;98835.31;;;19.37;25.28
6194;BME280;3130;41.564;23.280;2023-04-07T07:20:16;98880.94;;;20.70;23.68
6194;BME280;3130;41.564;23.280;2023-04-07T07:22:44;98873.53;;;21.56;22.73
6194;BME280;3130;41.564;23.280;2023-04-07T07:25:11;98870.50;;;21.84;21.68
6194;BME280;3130;41.564;23.280;2023-04-07T07:27:38;98861.53;;;23.49;20.32
6194;BME280;3130;41.564;23.280;2023-04-07T07:30:07;98863.84;;;23.67;19.57
6194;BME280;3130;41.564;23.280;2023-04-07T07:32:35;98865.75;;;24.69;18.10
6194;BME280;3130;41.564;23.280;2023-04-07T07:35:02;98834.66;;;25.72;17.76
6194;BME280;3130;41.564;23.280;2023-04-07T07:37:29;98853.53;;;26.58;17.30
6194;BME280;3130;41.564;23.280;2023-04-07T07:39:56;98849.63;;;27.28;16.00
6194;BME280;3130;41.564;23.280;2023-04-07T07:42:23;98843.75;;;24.84;16.88
6194;BME280;3130;41.564;23.280;2023-04-07T07:44:50;98849.16;;;21.08;20.79
6194;BME280;3130;41.564;23.280;2023-04-07T07:47:18;98843.56;;;23.46;18.92
6194;BME280;3130;41.564;23.280;2023-04-07T07:49:45;98844.38;;;24.86;17.80
6194;BME280;3130;41.564;23.280;2023-04-07T07:52:12;98840.22;;;26.65;16.48
6194;BME280;3130;41.564;23.280;2023-04-07T07:54:40;98848.44;;;27.30;15.18
6194;BME280;3130;41.564;23.280;2023-04-07T07:57:07;98839.28;;;25.91;16.12
6194;BME280;3130;41.564;23.280;2023-04-07T07:59:34;98823.19;;;25.58;16.72
6194;BME280;3130;41.564;23.280;2023-04-07T08:02:01;98839.53;;;26.51;16.19
6194;BME280;3130;41.564;23.280;2023-04-07T08:04:29;98847.16;;;25.14;16.62
6194;BME280;3130;41.564;23.280;2023-04-07T08:06:56;98847.06;;;23.09;18.33
6194;BME280;3130;41.564;23.280;2023-04-07T08:09:24;98829.63;;;23.24;18.39
6194;BME280;3130;41.564;23.280;2023-04-07T08:11:51;98814.03;;;23.97;17.69
6194;BME280;3130;41.564;23.280;2023-04-07T08:14:18;98831.44;;;24.42;17.59
6194;BME280;3130;41.564;23.280;2023-04-07T08:16:45;98838.63;;;25.26;16.83
6194;BME280;3130;41.564;23.280;2023-04-07T08:19:12;98834.69;;;24.15;17.26
6194;BME280;3130;41.564;23.280;2023-04-07T08:21:41;98825.84;;;23.79;17.44
6194;BME280;3130;41.564;23.280;2023-04-07T08:24:08;98818.28;;;20.79;20.16
6194;BME280;3130;41.564;23.280;2023-04-07T08:26:36;98828.59;;;19.87;21.77
6194;BME280;3130;41.564;23.280;2023-04-07T08:29:03;98826.75;;;18.11;24.22
6194;BME280;3130;41.564;23.280;2023-04-07T08:31:30;98822.38;;;16.28;25.74
6194;BME280;3130;41.564;23.280;2023-04-07T08:33:57;98830.72;;;15.30;26.79
6194;BME280;3130;41.564;23.280;2023-04-07T08:36:24;98829.78;;;15.51;27.19
6194;BME280;3130;41.564;23.280;2023-04-07T08:38:54;98787.97;;;15.26;27.41
6194;BME280;3130;41.564;23.280;2023-04-07T08:41:28;98787.75;;;15.18;26.58
6194;BME280;3130;41.564;23.280;2023-04-07T08:43:56;98821.41;;;15.59;26.50
6194;BME280;3130;41.564;23.280;2023-04-07T08:46:24;98780.13;;;15.16;26.78
6194;BME280;3130;41.564;23.280;2023-04-07T08:48:52;98826.63;;;15.27;26.94
6194;BME280;3130;41.564;23.280;2023-04-07T08:51:26;98720.16;;;14.28;26.44
6194;BME280;3130;41.564;23.280;2023-04-07T08:54:02;98780.31;;;14.40;27.59
6194;BME280;3130;41.564;23.280;2023-04-07T08:56:32;98813.81;;;14.62;28.21
6194;BME280;3130;41.564;23.280;2023-04-07T08:59:00;98786.75;;;14.34;27.27
6194;BME280;3130;41.564;23.280;2023-04-07T09:01:28;98803.69;;;13.82;28.06
6194;BME280;3130;41.564;23.280;2023-04-07T09:03:56;98812.78;;;13.64;29.47
6194;BME280;3130;41.564;23.280;2023-04-07T09:06:23;98804.13;;;13.65;29.74
6194;BME280;3130;41.564;23.280;2023-04-07T09:08:54;98806.56;;;13.09;29.59
6194;BME280;3130;41.564;23.280;2023-04-07T09:11:21;98768.34;;;12.92;29.94
6194;BME280;3130;41.564;23.280;2023-04-07T09:13:49;98791.81;;;12.88;30.59
6194;BME280;3130;41.564;23.280;2023-04-07T09:16:17;98804.16;;;12.95;29.97
6194;BME280;3130;41.564;23.280;2023-04-07T09:18:44;98804.28;;;12.81;30.03
6194;BME280;3130;41.564;23.280;2023-04-07T09:21:11;98800.56;;;12.62;30.34
6194;BME280;3130;41.564;23.280;2023-04-07T09:23:39;98805.72;;;12.62;30.80
6194;BME280;3130;41.564;23.280;2023-04-07T09:26:23;98798.63;;;12.76;30.06
6194;BME280;3130;41.564;23.280;2023-04-07T09:28:52;98796.03;;;12.89;29.38
6194;BME280;3130;41.564;23.280;2023-04-07T09:31:20;98796.25;;;12.86;29.68
6194;BME280;3130;41.564;23.280;2023-04-07T09:33:48;98799.38;;;12.66;29.97
6194;BME280;3130;41.564;23.280;2023-04-07T09:36:15;98788.16;;;12.67;29.56
6194;BME280;3130;41.564;23.280;2023-04-07T09:38:43;98794.50;;;12.86;29.49
6194;BME280;3130;41.564;23.280;2023-04-07T09:41:12;98788.88;;;13.05;29.55
6194;BME280;3130;41.564;23.280;2023-04-07T09:43:43;98788.03;;;13.16;29.65
6194;BME280;3130;41.564;23.280;2023-04-07T09:46:12;98786.75;;;13.22;29.81
6194;BME280;3130;41.564;23.280;2023-04-07T09:48:40;98783.72;;;13.28;29.88
6194;BME280;3130;41.564;23.280;2023-04-07T09:51:09;98750.75;;;12.99;29.51
6194;BME280;3130;41.564;23.280;2023-04-07T09:53:41;98772.72;;;13.26;30.49
6194;BME280;3130;41.564;23.280;2023-04-07T09:56:09;98769.47;;;13.35;31.14
6194;BME280;3130;41.564;23.280;2023-04-07T09:58:37;98784.94;;;13.35;30.78
6194;BME280;3130;41.564;23.280;2023-04-07T10:01:07;98781.91;;;13.41;30.56
6194;BME280;3130;41.564;23.280;2023-04-07T10:03:35;98786.22;;;13.40;30.39
6194;BME280;3130;41.564;23.280;2023-04-07T10:06:03;98783.78;;;13.39;30.60
6194;BME280;3130;41.564;23.280;2023-04-07T10:08:32;98761.31;;;13.41;31.45
6194;BME280;3130;41.564;23.280;2023-04-07T10:11:00;98777.84;;;13.60;30.25
6194;BME280;3130;41.564;23.280;2023-04-07T10:13:28;98779.06;;;13.33;30.50
6194;BME280;3130;41.564;23.280;2023-04-07T10:15:56;98783.03;;;13.26;31.30
6194;BME280;3130;41.564;23.280;2023-04-07T10:18:28;98751.47;;;13.11;32.01
6194;BME280;3130;41.564;23.280;2023-04-07T10:20:56;98789.41;;;13.44;32.49
6194;BME280;3130;41.564;23.280;2023-04-07T10:23:33;98777.59;;;13.18;32.67
6194;BME280;3130;41.564;23.280;2023-04-07T10:26:04;98773.09;;;13.32;32.91
6194;BME280;3130;41.564;23.280;2023-04-07T10:28:33;98767.25;;;13.41;31.86
6194;BME280;3130;41.564;23.280;2023-04-07T10:31:02;98781.19;;;13.39;30.28
6194;BME280;3130;41.564;23.280;2023-04-07T10:33:46;98778.50;;;13.06;31.05
6194;BME280;3130;41.564;23.280;2023-04-07T10:36:13;98770.97;;;13.26;31.22
6194;BME280;3130;41.564;23.280;2023-04-07T10:38:41;98771.34;;;13.33;31.11
6194;BME280;3130;41.564;23.280;2023-04-07T10:41:32;98770.81;;;13.17;30.75
6194;BME280;3130;41.564;23.280;2023-04-07T10:44:01;98765.38;;;13.09;30.90
6194;BME280;3130;41.564;23.280;2023-04-07T10:47:01;98763.38;;;13.36;31.05
6194;BME280;3130;41.564;23.280;2023-04-07T10:49:30;98757.31;;;13.37;30.54
6194;BME280;3130;41.564;23.280;2023-04-07T10:52:21;98746.16;;;13.36;30.90
6194;BME280;3130;41.564;23.280;2023-04-07T10:55:27;98744.22;;;13.51;30.82
6194;BME280;3130;41.564;23.280;2023-04-07T10:58:16;98698.38;;;13.21;30.21
6194;BME280;3130;41.564;23.280;2023-04-07T11:01:16;98742.22;;;13.54;30.19
6194;BME280;3130;41.564;23.280;2023-04-07T11:03:57;98752.59;;;13.76;29.69
6194;BME280;3130;41.564;23.280;2023-04-07T11:06:26;98737.94;;;13.99;29.35
6194;BME280;3130;41.564;23.280;2023-04-07T11:08:54;98736.56;;;14.16;28.62
6194;BME280;3130;41.564;23.280;2023-04-07T11:11:37;98730.34;;;14.30;27.83
6194;BME280;3130;41.564;23.280;2023-04-07T11:14:04;98739.03;;;14.29;27.71
6194;BME280;3130;41.564;23.280;2023-04-07T11:16:39;98720.06;;;14.19;27.67
6194;BME280;3130;41.564;23.280;2023-04-07T11:19:06;98740.41;;;14.11;28.43
6194;BME280;3130;41.564;23.280;2023-04-07T11:21:35;98727.91;;;14.17;26.64
6194;BME280;3130;41.564;23.280;2023-04-07T11:24:02;98728.38;;;14.22;27.13
6194;BME280;3130;41.564;23.280;2023-04-07T11:26:36;98718.63;;;14.37;27.90
6194;BME280;3130;41.564;23.280;2023-04-07T11:29:03;98729.63;;;14.50;27.45
6194;BME280;3130;41.564;23.280;2023-04-07T11:31:31;98727.41;;;14.34;28.09
6194;BME280;3130;41.564;23.280;2023-04-07T11:33:59;98700.91;;;14.43;28.45
6194;BME280;3130;41.564;23.280;2023-04-07T11:36:28;98717.59;;;14.71;27.93
6194;BME280;3130;41.564;23.280;2023-04-07T11:38:57;98704.19;;;14.45;27.17
6194;BME280;3130;41.564;23.280;2023-04-07T11:41:25;98719.34;;;14.70;27.76
6194;BME280;3130;41.564;23.280;2023-04-07T11:44:06;98705.16;;;14.76;27.79
6194;BME280;3130;41.564;23.280;2023-04-07T11:46:33;98705.50;;;14.82;27.67
6194;BME280;3130;41.564;23.280;2023-04-07T11:49:11;98700.03;;;14.65;27.04
6194;BME280;3130;41.564;23.280;2023-04-07T11:51:39;98692.75;;;14.70;27.15
6194;BME280;3130;41.564;23.280;2023-04-07T11:54:08;98695.50;;;14.78;26.97
6194;BME280;3130;41.564;23.280;2023-04-07T11:56:45;98692.59;;;14.82;26.64
6194;BME280;3130;41.564;23.280;2023-04-07T11:59:22;98696.13;;;15.02;26.64
6194;BME280;3130;41.564;23.280;2023-04-07T12:01:50;98673.34;;;15.07;27.20
6194;BME280;3130;41.564;23.280;2023-04-07T12:04:18;98695.81;;;14.95;26.00
6194;BME280;3130;41.564;23.280;2023-04-07T12:06:47;98693.41;;;15.03;26.70
6194;BME280;3130;41.564;23.280;2023-04-07T12:09:29;98692.59;;;15.23;27.33
6194;BME280;3130;41.564;23.280;2023-04-07T12:11:57;98680.78;;;15.20;26.40
6194;BME280;3130;41.564;23.280;2023-04-07T12:14:24;98667.47;;;15.05;25.91
6194;BME280;3130;41.564;23.280;2023-04-07T12:16:52;98679.06;;;15.10;27.01
6194;BME280;3130;41.564;23.280;2023-04-07T12:19:21;98683.63;;;14.86;26.17
6194;BME280;3130;41.564;23.280;2023-04-07T12:21:48;98682.38;;;14.81;26.07
6194;BME280;3130;41.564;23.280;2023-04-07T12:24:15;98682.81;;;14.86;25.72
6194;BME280;3130;41.564;23.280;2023-04-07T12:26:44;98689.63;;;15.07;25.86
6194;BME280;3130;41.564;23.280;2023-04-07T12:29:11;98667.72;;;15.02;25.97
6194;BME280;3130;41.564;23.280;2023-04-07T12:31:38;98674.38;;;15.04;26.54
6194;BME280;3130;41.564;23.280;2023-04-07T12:34:05;98675.84;;;15.17;27.33
6194;BME280;3130;41.564;23.280;2023-04-07T12:36:32;98652.78;;;14.85;27.05
6194;BME280;3130;41.564;23.280;2023-04-07T12:38:59;98662.94;;;14.97;27.23
6194;BME280;3130;41.564;23.280;2023-04-07T12:41:27;98679.84;;;15.42;27.14
6194;BME280;3130;41.564;23.280;2023-04-07T12:43:55;98680.44;;;15.55;26.55
6194;BME280;3130;41.564;23.280;2023-04-07T12:46:22;98675.31;;;15.64;26.27
6194;BME280;3130;41.564;23.280;2023-04-07T12:48:49;98655.53;;;15.44;26.34
6194;BME280;3130;41.564;23.280;2023-04-07T12:51:16;98678.59;;;15.66;26.70
6194;BME280;3130;41.564;23.280;2023-04-07T12:53:43;98671.97;;;15.73;26.45
6194;BME280;3130;41.564;23.280;2023-04-07T12:56:11;98667.53;;;15.55;26.03
6194;BME280;3130;41.564;23.280;2023-04-07T12:58:38;98634.84;;;15.44;26.36
6194;BME280;3130;41.564;23.280;2023-04-07T13:01:07;98660.75;;;15.84;26.86
6194;BME280;3130;41.564;23.280;2023-04-07T13:03:34;98663.09;;;15.96;26.59
6194;BME280;3130;41.564;23.280;2023-04-07T13:06:01;98660.47;;;15.87;26.44
6194;BME280;3130;41.564;23.280;2023-04-07T13:08:29;98664.69;;;15.58;26.46
6194;BME280;3130;41.564;23.280;2023-04-07T13:10:56;98656.56;;;15.62;26.89
6194;BME280;3130;41.564;23.280;2023-04-07T13:13:23;98629.94;;;15.71;27.39
6194;BME280;3130;41.564;23.280;2023-04-07T13:15:50;98643.97;;;15.78;27.83
6194;BME280;3130;41.564;23.280;2023-04-07T13:18:19;98658.94;;;15.84;27.24
6194;BME280;3130;41.564;23.280;2023-04-07T13:20:46;98614.38;;;15.62;27.58
6194;BME280;3130;41.564;23.280;2023-04-07T13:23:13;98647.16;;;15.91;27.72
6194;BME280;3130;41.564;23.280;2023-04-07T13:25:40;98640.00;;;16.13;26.97